createdAt,value
2023-03-29T00:00:42.105Z,0.00
2023-03-29T00:01:43.896Z,-0.03
2023-03-29T00:02:48.744Z,-0.02
2023-03-29T00:03:52.063Z,-0.03
2023-03-29T00:04:54.179Z,-0.04
2023-03-29T00:06:04.101Z,-0.06
2023-03-29T00:07:06.119Z,-0.09
2023-03-29T00:08:08.929Z,-0.08
2023-03-29T00:09:10.796Z,-0.07
2023-03-29T00:10:13.178Z,-0.08
2023-03-29T00:11:15.120Z,-0.10
2023-03-29T00:12:17.542Z,-0.11
2023-03-29T00:13:19.421Z,-0.09
2023-03-29T00:14:21.791Z,-0.10
2023-03-29T00:15:23.809Z,-0.11
2023-03-29T00:16:25.636Z,-0.10
2023-03-29T00:17:28.328Z,-0.11
2023-03-29T00:18:30.303Z,-0.11
2023-03-29T00:19:35.840Z,-0.12
2023-03-29T00:20:37.664Z,-0.14
2023-03-29T00:21:39.649Z,-0.12
2023-03-29T00:22:42.491Z,-0.13
2023-03-29T00:23:44.731Z,-0.12
2023-03-29T00:24:47.982Z,-0.12
2023-03-29T00:25:49.882Z,-0.14
2023-03-29T00:26:51.642Z,-0.16
2023-03-29T00:27:53.627Z,-0.17
2023-03-29T00:28:55.517Z,-0.20
2023-03-29T00:29:58.028Z,-0.20
2023-03-29T00:31:12.245Z,-0.20
2023-03-29T00:32:15.561Z,-0.22
2023-03-29T00:33:20.767Z,-0.22
2023-03-29T00:34:24.006Z,-0.22
2023-03-29T00:35:25.883Z,-0.25
2023-03-29T00:36:27.953Z,-0.25
2023-03-29T00:37:32.576Z,-0.27
2023-03-29T00:38:35.578Z,-0.26
2023-03-29T00:39:37.565Z,-0.28
2023-03-29T00:41:59.877Z,-0.30
2023-03-29T00:43:01.904Z,-0.31
2023-03-29T00:44:05.252Z,-0.31
2023-03-29T00:45:19.211Z,-0.32
2023-03-29T00:46:21.850Z,-0.33
2023-03-29T00:47:43.991Z,-0.32
2023-03-29T00:48:46.753Z,-0.33
2023-03-29T00:49:50.544Z,-0.35
2023-03-29T00:50:56.416Z,-0.35
2023-03-29T00:51:58.386Z,-0.37
2023-03-29T00:53:41.232Z,-0.36
2023-03-29T00:54:45.075Z,-0.38
2023-03-29T00:55:53.454Z,-0.38
2023-03-29T00:56:55.837Z,-0.38
2023-03-29T00:57:58.999Z,-0.39
2023-03-29T00:59:13.872Z,-0.38
2023-03-29T01:00:21.015Z,-0.39
2023-03-29T01:01:48.606Z,-0.38
2023-03-29T01:02:59.850Z,-0.40
2023-03-29T01:04:20.811Z,-0.41
2023-03-29T01:05:31.160Z,-0.46
2023-03-29T01:06:36.665Z,-0.43
2023-03-29T01:07:50.612Z,-0.44
2023-03-29T01:09:01.195Z,-0.44
2023-03-29T01:10:14.722Z,-0.43
2023-03-29T01:11:27.590Z,-0.42
2023-03-29T01:12:39.362Z,-0.44
2023-03-29T01:13:47.083Z,-0.45
2023-03-29T01:14:58.353Z,-0.48
2023-03-29T01:16:03.027Z,-0.49
2023-03-29T01:17:05.953Z,-0.49
2023-03-29T01:18:08.991Z,-0.47
2023-03-29T01:19:16.049Z,-0.50
2023-03-29T01:20:28.599Z,-0.49
2023-03-29T01:21:36.548Z,-0.52
2023-03-29T01:23:10.080Z,-0.49
2023-03-29T01:24:47.298Z,-0.51
2023-03-29T01:26:10.075Z,-0.52
2023-03-29T01:27:41.226Z,-0.53
2023-03-29T01:28:52.540Z,-0.54
2023-03-29T01:30:02.402Z,-0.55
2023-03-29T01:31:13.373Z,-0.57
2023-03-29T01:32:38.075Z,-0.55
2023-03-29T01:33:49.391Z,-0.53
2023-03-29T01:35:10.428Z,-0.52
2023-03-29T01:36:19.361Z,-0.53
2023-03-29T01:37:29.370Z,-0.53
2023-03-29T01:38:41.967Z,-0.53
2023-03-29T01:39:44.216Z,-0.54
2023-03-29T01:40:46.228Z,-0.52
2023-03-29T01:42:10.268Z,-0.51
2023-03-29T01:43:21.668Z,-0.51
2023-03-29T01:44:53.291Z,-0.48
2023-03-29T01:46:16.862Z,-0.47
2023-03-29T01:47:18.879Z,-0.45
2023-03-29T01:48:37.380Z,-0.44
2023-03-29T01:49:54.619Z,-0.43
2023-03-29T01:51:09.743Z,-0.40
2023-03-29T01:52:19.222Z,-0.39
2023-03-29T01:53:34.456Z,-0.38
2023-03-29T01:54:42.044Z,-0.35
2023-03-29T01:55:50.222Z,-0.35
2023-03-29T01:56:53.385Z,-0.35
2023-03-29T01:57:56.749Z,-0.30
2023-03-29T01:59:04.316Z,-0.30
2023-03-29T02:00:11.161Z,-0.26
2023-03-29T02:01:19.256Z,-0.24
2023-03-29T02:02:24.637Z,-0.24
2023-03-29T02:03:31.011Z,-0.18
2023-03-29T02:04:38.276Z,-0.13
2023-03-29T02:05:42.519Z,-0.12
2023-03-29T02:06:46.717Z,-0.14
2023-03-29T02:07:50.680Z,-0.12
2023-03-29T02:08:55.959Z,-0.11
2023-03-29T02:09:59.101Z,-0.09
2023-03-29T02:11:01.736Z,-0.07
2023-03-29T02:12:06.934Z,-0.06
2023-03-29T02:13:08.979Z,-0.04
2023-03-29T02:14:11.231Z,-0.01
2023-03-29T02:15:21.217Z,-0.02
2023-03-29T02:16:23.311Z,0.02
2023-03-29T02:17:27.775Z,0.04
2023-03-29T02:18:30.821Z,0.03
2023-03-29T02:19:33.268Z,0.03
2023-03-29T02:20:43.437Z,0.06
2023-03-29T02:21:53.617Z,0.05
2023-03-29T02:23:13.976Z,0.07
2023-03-29T02:24:18.360Z,0.05
2023-03-29T02:25:22.691Z,0.06
2023-03-29T02:26:24.920Z,0.08
2023-03-29T02:27:29.242Z,0.09
2023-03-29T02:28:32.080Z,0.07
2023-03-29T02:29:34.346Z,0.05
2023-03-29T02:30:57.828Z,0.11
2023-03-29T02:32:08.897Z,0.12
2023-03-29T02:33:17.189Z,0.23
2023-03-29T02:34:30.830Z,0.26
2023-03-29T02:35:39.432Z,0.22
2023-03-29T02:36:46.868Z,0.17
2023-03-29T02:37:53.044Z,0.17
2023-03-29T02:38:56.429Z,0.13
2023-03-29T02:39:59.677Z,0.12
2023-03-29T02:41:03.204Z,0.14
2023-03-29T02:42:06.586Z,0.13
2023-03-29T02:43:10.127Z,0.13
2023-03-29T02:44:15.423Z,0.13
2023-03-29T02:45:18.987Z,0.09
2023-03-29T02:46:21.594Z,0.10
2023-03-29T02:47:32.126Z,0.12
2023-03-29T02:48:37.202Z,0.12
2023-03-29T02:49:39.211Z,0.09
2023-03-29T02:50:46.139Z,0.19
2023-03-29T02:51:52.841Z,0.19
2023-03-29T02:53:04.896Z,0.18
2023-03-29T02:54:18.090Z,0.15
2023-03-29T02:55:23.609Z,0.16
2023-03-29T02:56:25.691Z,0.14
2023-03-29T02:57:28.852Z,0.17
2023-03-29T02:58:31.818Z,0.29
2023-03-29T02:59:34.894Z,0.24
2023-03-29T03:00:41.141Z,0.17
2023-03-29T03:01:43.143Z,0.17
2023-03-29T03:02:46.125Z,0.22
2023-03-29T03:03:48.350Z,0.15
2023-03-29T03:04:51.074Z,0.11
2023-03-29T03:05:53.125Z,0.07
2023-03-29T03:06:55.363Z,0.17
2023-03-29T03:07:58.608Z,0.25
2023-03-29T03:09:00.471Z,0.26
2023-03-29T03:10:04.090Z,0.18
2023-03-29T03:11:07.278Z,0.23
2023-03-29T03:12:09.519Z,0.21
2023-03-29T03:13:11.783Z,0.14
2023-03-29T03:14:13.726Z,0.13
2023-03-29T03:15:15.735Z,0.06
2023-03-29T03:16:18.320Z,0.17
2023-03-29T03:17:20.415Z,0.14
2023-03-29T03:18:22.737Z,0.28
2023-03-29T03:19:24.979Z,0.19
2023-03-29T03:20:27.428Z,0.17
2023-03-29T03:21:29.762Z,0.10
2023-03-29T03:22:32.539Z,0.04
2023-03-29T03:23:34.771Z,0.07
2023-03-29T03:24:36.759Z,0.08
2023-03-29T03:25:38.864Z,0.06
2023-03-29T03:26:41.024Z,0.06
2023-03-29T03:27:43.610Z,0.13
2023-03-29T03:28:48.552Z,0.16
2023-03-29T03:29:50.434Z,0.16
2023-03-29T03:30:52.541Z,0.13
2023-03-29T03:31:55.828Z,0.19
2023-03-29T03:32:57.903Z,0.11
2023-03-29T03:34:00.029Z,0.07
2023-03-29T03:35:03.056Z,0.08
2023-03-29T03:36:06.572Z,0.17
2023-03-29T03:37:08.692Z,0.18
2023-03-29T03:38:10.966Z,0.15
2023-03-29T03:39:13.593Z,0.15
2023-03-29T03:40:15.676Z,0.12
2023-03-29T03:41:17.687Z,0.21
2023-03-29T03:42:20.062Z,0.21
2023-03-29T03:43:22.897Z,0.16
2023-03-29T03:44:24.877Z,0.14
2023-03-29T03:45:27.349Z,0.10
2023-03-29T03:46:29.844Z,0.05
2023-03-29T03:47:32.169Z,0.04
2023-03-29T03:48:34.145Z,0.03
2023-03-29T03:49:36.134Z,0.06
2023-03-29T03:50:38.435Z,0.09
2023-03-29T03:51:42.165Z,0.26
2023-03-29T03:52:45.042Z,0.34
2023-03-29T03:53:47.361Z,0.25
2023-03-29T03:54:50.396Z,0.28
2023-03-29T03:55:56.158Z,0.34
2023-03-29T03:56:59.224Z,0.36
2023-03-29T03:58:01.712Z,0.23
2023-03-29T03:59:03.885Z,0.14
2023-03-29T04:00:19.563Z,0.11
2023-03-29T04:01:21.535Z,0.10
2023-03-29T04:02:23.595Z,0.04
2023-03-29T04:03:26.027Z,0.04
2023-03-29T04:04:28.979Z,0.05
2023-03-29T04:05:30.949Z,0.04
2023-03-29T04:06:32.926Z,0.06
2023-03-29T04:07:34.836Z,0.07
2023-03-29T04:08:37.028Z,0.08
2023-03-29T04:09:39.177Z,0.11
2023-03-29T04:10:42.059Z,0.08
2023-03-29T04:11:43.978Z,0.14
2023-03-29T04:12:46.149Z,0.18
2023-03-29T04:13:48.454Z,0.25
2023-03-29T04:14:50.506Z,0.24
2023-03-29T04:15:58.736Z,0.32
2023-03-29T04:17:02.146Z,0.41
2023-03-29T04:18:06.505Z,0.55
2023-03-29T04:19:08.494Z,0.41
2023-03-29T04:20:12.847Z,0.32
2023-03-29T04:21:15.619Z,0.26
2023-03-29T04:22:17.568Z,0.29
2023-03-29T04:23:19.650Z,0.28
2023-03-29T04:24:24.370Z,0.27
2023-03-29T04:25:26.385Z,0.35
2023-03-29T04:26:28.509Z,0.39
2023-03-29T04:27:30.486Z,0.34
2023-03-29T04:28:32.645Z,0.28
2023-03-29T04:29:34.842Z,0.28
2023-03-29T04:30:36.988Z,0.25
2023-03-29T04:31:39.061Z,0.35
2023-03-29T04:32:41.206Z,0.38
2023-03-29T04:33:43.391Z,0.44
2023-03-29T04:34:45.280Z,0.49
2023-03-29T04:35:47.942Z,0.50
2023-03-29T04:36:53.073Z,0.42
2023-03-29T04:37:55.185Z,0.40
2023-03-29T04:38:57.456Z,0.41
2023-03-29T04:40:00.542Z,0.29
2023-03-29T04:41:05.113Z,0.21
2023-03-29T04:42:07.145Z,0.25
2023-03-29T04:43:09.162Z,0.23
2023-03-29T04:44:11.855Z,0.22
2023-03-29T04:45:18.298Z,0.26
2023-03-29T04:46:20.416Z,0.34
2023-03-29T04:47:22.341Z,0.36
2023-03-29T04:48:24.745Z,0.39
2023-03-29T04:49:27.058Z,0.42
2023-03-29T04:50:29.017Z,0.45
2023-03-29T04:51:31.703Z,0.42
2023-03-29T04:52:33.795Z,0.47
2023-03-29T04:53:35.748Z,0.46
2023-03-29T04:54:37.961Z,0.49
2023-03-29T04:55:39.970Z,0.50
2023-03-29T04:56:42.344Z,0.52
2023-03-29T04:57:47.221Z,0.49
2023-03-29T04:58:49.830Z,0.43
2023-03-29T04:59:51.860Z,0.42
2023-03-29T05:00:58.546Z,0.48
2023-03-29T05:02:02.415Z,0.44
2023-03-29T05:03:04.687Z,0.49
2023-03-29T05:04:06.807Z,0.55
2023-03-29T05:05:09.701Z,0.57
2023-03-29T05:06:12.399Z,0.58
2023-03-29T05:07:15.646Z,0.59
2023-03-29T05:08:18.009Z,0.60
2023-03-29T05:09:20.082Z,0.58
2023-03-29T05:10:22.271Z,0.60
2023-03-29T05:11:25.574Z,0.58
2023-03-29T05:12:27.644Z,0.59
2023-03-29T05:13:29.612Z,0.61
2023-03-29T05:14:31.667Z,0.68
2023-03-29T05:15:33.810Z,0.77
2023-03-29T05:16:35.904Z,0.92
2023-03-29T05:17:38.012Z,0.89
2023-03-29T05:18:40.188Z,0.91
2023-03-29T05:19:43.610Z,0.89
2023-03-29T05:20:45.977Z,0.90
2023-03-29T05:21:50.397Z,1.01
2023-03-29T05:22:53.429Z,1.00
2023-03-29T05:23:55.858Z,1.00
2023-03-29T05:24:57.951Z,0.94
2023-03-29T05:26:00.568Z,0.93
2023-03-29T05:27:02.670Z,0.87
2023-03-29T05:28:04.993Z,0.84
2023-03-29T05:29:09.138Z,0.83
2023-03-29T05:30:11.768Z,0.88
2023-03-29T05:31:16.677Z,0.90
2023-03-29T05:32:19.885Z,0.95
2023-03-29T05:33:22.003Z,0.95
2023-03-29T05:34:24.005Z,1.03
2023-03-29T05:35:26.511Z,1.09
2023-03-29T05:36:28.615Z,1.03
2023-03-29T05:37:33.889Z,1.00
2023-03-29T05:38:35.966Z,1.06
2023-03-29T05:39:38.259Z,1.02
2023-03-29T05:40:41.727Z,1.08
2023-03-29T05:41:43.950Z,1.07
2023-03-29T05:42:46.039Z,1.06
2023-03-29T05:43:48.080Z,1.07
2023-03-29T05:44:51.089Z,1.12
2023-03-29T05:45:55.834Z,1.16
2023-03-29T05:46:57.999Z,1.19
2023-03-29T05:47:59.965Z,1.22
2023-03-29T05:49:02.606Z,1.21
2023-03-29T05:50:05.317Z,1.23
2023-03-29T05:51:07.408Z,1.25
2023-03-29T05:52:09.495Z,1.25
2023-03-29T05:53:11.549Z,1.28
2023-03-29T05:54:13.642Z,1.31
2023-03-29T05:55:15.802Z,1.27
2023-03-29T05:56:19.277Z,1.23
2023-03-29T05:57:21.655Z,1.28
2023-03-29T05:58:26.800Z,1.41
2023-03-29T05:59:29.820Z,1.34
2023-03-29T06:00:34.660Z,1.22
2023-03-29T06:01:36.956Z,1.22
2023-03-29T06:02:39.059Z,1.19
2023-03-29T06:03:41.568Z,1.21
2023-03-29T06:04:43.813Z,1.23
2023-03-29T06:05:50.409Z,1.21
2023-03-29T06:06:53.306Z,1.22
2023-03-29T06:07:56.783Z,1.23
2023-03-29T06:08:59.269Z,1.33
2023-03-29T06:10:01.733Z,1.33
2023-03-29T06:11:09.067Z,1.35
2023-03-29T06:12:12.370Z,1.29
2023-03-29T06:13:14.275Z,1.29
2023-03-29T06:14:16.216Z,1.27
2023-03-29T06:15:18.556Z,1.31
2023-03-29T06:16:20.707Z,1.33
2023-03-29T06:17:23.052Z,1.38
2023-03-29T06:18:25.192Z,1.40
2023-03-29T06:19:27.459Z,1.42
2023-03-29T06:20:29.769Z,1.58
2023-03-29T06:21:31.864Z,1.53
2023-03-29T06:22:33.873Z,1.60
2023-03-29T06:23:36.600Z,1.57
2023-03-29T06:24:38.866Z,1.55
2023-03-29T06:25:40.841Z,1.48
2023-03-29T06:26:42.892Z,1.54
2023-03-29T06:27:46.879Z,1.64
2023-03-29T06:28:51.942Z,1.62
2023-03-29T06:29:54.285Z,1.57
2023-03-29T06:30:56.620Z,1.55
2023-03-29T06:31:58.833Z,1.55
2023-03-29T06:33:01.227Z,1.57
2023-03-29T06:34:04.833Z,1.64
2023-03-29T06:35:07.392Z,1.69
2023-03-29T06:36:11.588Z,1.66
2023-03-29T06:37:13.733Z,1.57
2023-03-29T06:38:16.750Z,1.50
2023-03-29T06:39:18.949Z,1.46
2023-03-29T06:40:25.050Z,1.48
2023-03-29T06:41:27.055Z,1.52
2023-03-29T06:42:29.023Z,1.57
2023-03-29T06:43:33.470Z,1.68
2023-03-29T06:44:36.521Z,1.73
2023-03-29T06:45:39.536Z,1.84
2023-03-29T06:46:41.615Z,1.84
2023-03-29T06:47:43.848Z,1.88
2023-03-29T06:48:46.356Z,1.90
2023-03-29T06:49:48.257Z,1.90
2023-03-29T06:50:50.665Z,1.96
2023-03-29T06:51:53.135Z,1.88
2023-03-29T06:52:55.228Z,1.82
2023-03-29T06:53:57.230Z,1.83
2023-03-29T06:55:01.903Z,1.80
2023-03-29T06:56:09.446Z,1.80
2023-03-29T06:57:13.441Z,1.85
2023-03-29T06:58:15.753Z,1.92
2023-03-29T06:59:18.232Z,1.94
2023-03-29T07:00:28.098Z,1.96
2023-03-29T07:01:31.236Z,1.95
2023-03-29T07:02:34.731Z,1.99
2023-03-29T07:03:36.905Z,2.08
2023-03-29T07:04:39.762Z,2.14
2023-03-29T07:05:42.164Z,2.16
2023-03-29T07:06:48.523Z,2.14
2023-03-29T07:08:00.205Z,2.09
2023-03-29T07:09:06.758Z,2.05
2023-03-29T07:10:09.196Z,2.12
2023-03-29T07:11:13.624Z,2.17
2023-03-29T07:12:15.664Z,2.31
2023-03-29T07:13:17.641Z,2.21
2023-03-29T07:14:19.582Z,2.11
2023-03-29T07:15:22.071Z,2.11
2023-03-29T07:16:24.313Z,2.09
2023-03-29T07:17:26.469Z,2.04
2023-03-29T07:18:28.718Z,2.13
2023-03-29T07:19:30.738Z,2.16
2023-03-29T07:20:33.896Z,2.29
2023-03-29T07:21:37.991Z,2.23
2023-03-29T07:22:42.044Z,2.32
2023-03-29T07:23:44.129Z,2.33
2023-03-29T07:24:46.077Z,2.19
2023-03-29T07:25:48.024Z,2.14
2023-03-29T07:27:03.398Z,2.17
2023-03-29T07:28:06.895Z,2.24
2023-03-29T07:29:09.475Z,2.24
2023-03-29T07:30:18.140Z,2.36
2023-03-29T07:31:20.240Z,2.54
2023-03-29T07:32:22.481Z,2.71
2023-03-29T07:33:24.581Z,2.82
2023-03-29T07:34:27.297Z,2.91
2023-03-29T07:35:29.446Z,2.95
2023-03-29T07:36:34.459Z,3.06
2023-03-29T07:37:39.539Z,3.14
2023-03-29T07:38:41.886Z,3.14
2023-03-29T07:39:43.932Z,3.11
2023-03-29T07:40:46.131Z,3.18
2023-03-29T07:41:48.256Z,3.18
2023-03-29T07:42:56.764Z,3.17
2023-03-29T07:44:03.334Z,3.17
2023-03-29T07:45:08.707Z,3.11
2023-03-29T07:46:11.604Z,2.97
2023-03-29T07:47:13.538Z,2.96
2023-03-29T07:48:15.667Z,3.04
2023-03-29T07:49:18.443Z,3.07
2023-03-29T07:50:21.706Z,3.05
2023-03-29T07:51:24.067Z,3.04
2023-03-29T07:52:28.328Z,2.98
2023-03-29T07:53:30.782Z,3.02
2023-03-29T07:54:32.949Z,3.05
2023-03-29T07:55:34.967Z,2.97
2023-03-29T07:56:37.323Z,2.97
2023-03-29T07:57:39.757Z,3.02
2023-03-29T07:58:41.865Z,3.03
2023-03-29T07:59:43.789Z,3.12
2023-03-29T08:00:45.871Z,3.16
2023-03-29T08:01:48.023Z,3.13
2023-03-29T08:02:52.645Z,3.18
2023-03-29T08:03:55.401Z,3.24
2023-03-29T08:04:57.607Z,3.28
2023-03-29T08:06:02.712Z,3.40
2023-03-29T08:07:04.600Z,3.45
2023-03-29T08:08:07.307Z,3.52
2023-03-29T08:09:09.317Z,3.41
2023-03-29T08:10:15.414Z,3.59
2023-03-29T08:11:17.913Z,3.64
2023-03-29T08:12:19.869Z,3.59
2023-03-29T08:13:22.004Z,3.41
2023-03-29T08:14:24.201Z,3.35
2023-03-29T08:15:26.624Z,3.40
2023-03-29T08:16:28.785Z,3.48
2023-03-29T08:17:31.138Z,3.33
2023-03-29T08:18:34.734Z,3.33
2023-03-29T08:19:37.205Z,3.37
2023-03-29T08:20:39.250Z,3.41
2023-03-29T08:21:41.316Z,3.42
2023-03-29T08:22:43.273Z,3.36
2023-03-29T08:23:45.331Z,3.50
2023-03-29T08:24:47.382Z,3.47
2023-03-29T08:25:49.348Z,3.49
2023-03-29T08:26:51.428Z,3.61
2023-03-29T08:27:53.763Z,3.72
2023-03-29T08:28:55.776Z,3.69
2023-03-29T08:29:57.738Z,3.75
2023-03-29T08:31:00.225Z,3.78
2023-03-29T08:32:02.321Z,3.82
2023-03-29T08:33:04.594Z,3.81
2023-03-29T08:34:06.609Z,3.76
2023-03-29T08:35:09.828Z,3.79
2023-03-29T08:36:11.870Z,3.83
2023-03-29T08:37:14.152Z,3.95
2023-03-29T08:38:16.429Z,4.01
2023-03-29T08:39:19.607Z,3.97
2023-03-29T08:40:28.188Z,3.98
2023-03-29T08:41:57.883Z,3.90
2023-03-29T08:43:21.068Z,3.89
2023-03-29T08:44:46.363Z,3.84
2023-03-29T08:46:03.471Z,3.86
2023-03-29T08:47:21.222Z,3.97
2023-03-29T08:48:40.360Z,4.03
2023-03-29T08:49:48.680Z,4.11
2023-03-29T08:50:54.188Z,4.12
2023-03-29T08:52:01.308Z,4.20
2023-03-29T08:53:08.675Z,4.33
2023-03-29T08:54:25.177Z,4.33
2023-03-29T08:55:33.577Z,4.22
2023-03-29T08:56:38.863Z,4.11
2023-03-29T08:57:51.796Z,3.85
2023-03-29T08:58:56.543Z,3.80
2023-03-29T09:00:02.525Z,3.75
2023-03-29T09:01:11.812Z,3.81
2023-03-29T09:02:30.755Z,3.78
2023-03-29T09:03:40.068Z,3.83
2023-03-29T09:04:42.731Z,3.74
2023-03-29T09:05:47.608Z,3.73
2023-03-29T09:06:50.488Z,3.72
2023-03-29T09:07:53.656Z,3.74
2023-03-29T09:08:55.574Z,3.93
2023-03-29T09:09:57.534Z,4.10
2023-03-29T09:11:11.742Z,4.13
2023-03-29T09:12:16.814Z,4.25
2023-03-29T09:13:39.140Z,4.25
2023-03-29T09:15:06.879Z,4.17
2023-03-29T09:16:33.735Z,4.38
2023-03-29T09:17:49.575Z,4.53
2023-03-29T09:19:02.505Z,4.63
2023-03-29T09:20:26.422Z,4.89
2023-03-29T09:21:41.517Z,4.97
2023-03-29T09:23:19.748Z,5.10
2023-03-29T09:24:51.084Z,5.19
2023-03-29T09:26:12.212Z,5.23
2023-03-29T09:27:31.611Z,5.19
2023-03-29T09:28:37.355Z,5.06
2023-03-29T09:29:54.719Z,4.97
2023-03-29T09:31:11.491Z,4.84
2023-03-29T09:32:19.827Z,4.74
2023-03-29T09:33:31.181Z,4.77
2023-03-29T09:34:43.585Z,4.83
2023-03-29T09:35:59.257Z,4.84
2023-03-29T09:37:15.948Z,4.86
2023-03-29T09:38:19.988Z,4.73
2023-03-29T09:39:22.938Z,4.87
2023-03-29T09:40:38.526Z,4.74
2023-03-29T09:41:57.039Z,4.64
2023-03-29T09:43:02.424Z,4.55
2023-03-29T09:44:20.798Z,4.47
2023-03-29T09:45:31.177Z,4.52
2023-03-29T09:46:43.631Z,4.59
2023-03-29T09:47:52.716Z,4.58
2023-03-29T09:48:56.740Z,4.70
2023-03-29T09:50:27.345Z,4.63
2023-03-29T09:51:34.307Z,4.74
2023-03-29T09:52:37.557Z,4.88
2023-03-29T09:53:39.638Z,4.96
2023-03-29T09:54:41.671Z,5.01
2023-03-29T09:55:47.167Z,5.05
2023-03-29T09:56:50.433Z,5.03
2023-03-29T09:57:52.723Z,5.14
2023-03-29T09:58:54.882Z,5.22
2023-03-29T09:59:59.377Z,5.25
2023-03-29T10:01:05.659Z,5.29
2023-03-29T10:02:12.143Z,5.36
2023-03-29T10:03:26.514Z,5.49
2023-03-29T10:04:28.691Z,5.47
2023-03-29T10:05:34.794Z,5.49
2023-03-29T10:06:42.714Z,5.33
2023-03-29T10:07:51.935Z,5.36
2023-03-29T10:08:59.444Z,5.47
2023-03-29T10:10:01.647Z,5.54
2023-03-29T10:11:09.782Z,5.64
2023-03-29T10:12:13.894Z,5.65
2023-03-29T10:13:19.094Z,5.64
2023-03-29T10:14:51.449Z,5.67
2023-03-29T10:15:59.112Z,5.76
2023-03-29T10:17:04.184Z,5.85
2023-03-29T10:18:13.364Z,5.84
2023-03-29T10:19:35.696Z,5.91
2023-03-29T10:20:41.352Z,5.94
2023-03-29T10:21:43.299Z,5.87
2023-03-29T10:22:55.078Z,5.88
2023-03-29T10:23:59.592Z,5.96
2023-03-29T10:25:02.426Z,5.90
2023-03-29T10:26:08.065Z,5.92
2023-03-29T10:27:11.923Z,5.94
2023-03-29T10:28:21.318Z,5.96
2023-03-29T10:29:25.629Z,6.04
2023-03-29T10:30:28.405Z,6.08
2023-03-29T10:31:33.882Z,6.00
2023-03-29T10:32:37.979Z,5.94
2023-03-29T10:33:40.049Z,5.96
2023-03-29T10:34:43.377Z,6.17
2023-03-29T10:35:47.518Z,6.12
2023-03-29T10:36:59.871Z,6.04
2023-03-29T10:38:07.859Z,5.90
2023-03-29T10:39:13.641Z,5.87
2023-03-29T10:40:24.908Z,5.81
2023-03-29T10:41:28.424Z,5.80
2023-03-29T10:42:31.396Z,5.83
2023-03-29T10:43:39.608Z,5.93
2023-03-29T10:44:41.825Z,5.99
2023-03-29T10:45:44.546Z,5.98
2023-03-29T10:46:46.688Z,6.06
2023-03-29T10:47:49.055Z,6.01
2023-03-29T10:48:57.845Z,6.05
2023-03-29T10:49:59.841Z,6.06
2023-03-29T10:51:03.358Z,6.15
2023-03-29T10:52:07.728Z,6.18
2023-03-29T10:53:26.456Z,6.29
2023-03-29T10:54:28.727Z,6.27
2023-03-29T10:55:42.756Z,6.36
2023-03-29T10:57:09.481Z,6.45
2023-03-29T10:58:37.949Z,6.50
2023-03-29T11:00:03.201Z,6.53
2023-03-29T11:01:06.941Z,6.57
2023-03-29T11:02:15.103Z,6.73
2023-03-29T11:03:29.591Z,6.74
2023-03-29T11:04:57.597Z,6.74
2023-03-29T11:06:08.777Z,6.62
2023-03-29T11:07:16.712Z,6.66
2023-03-29T11:08:34.034Z,6.76
2023-03-29T11:10:05.180Z,6.73
2023-03-29T11:11:41.328Z,6.77
2023-03-29T11:13:16.855Z,6.83
2023-03-29T11:15:03.365Z,6.76
2023-03-29T11:16:24.448Z,6.78
2023-03-29T11:17:51.068Z,6.73
2023-03-29T11:19:19.062Z,6.81
2023-03-29T11:20:43.470Z,6.84
2023-03-29T11:22:03.466Z,6.82
2023-03-29T11:23:18.409Z,6.77
2023-03-29T11:24:28.005Z,6.93
2023-03-29T11:25:57.508Z,6.92
2023-03-29T11:27:17.718Z,6.93
2023-03-29T11:28:33.066Z,6.90
2023-03-29T11:29:46.315Z,6.91
2023-03-29T11:30:55.680Z,6.93
2023-03-29T11:32:26.298Z,7.00
2023-03-29T11:33:53.024Z,7.08
2023-03-29T11:35:12.925Z,7.19
2023-03-29T11:36:32.464Z,7.19
2023-03-29T11:37:52.154Z,7.14
2023-03-29T11:39:26.225Z,7.20
2023-03-29T11:40:32.573Z,7.23
2023-03-29T11:41:39.972Z,7.21
2023-03-29T11:42:48.068Z,7.19
2023-03-29T11:43:56.483Z,7.19
2023-03-29T11:45:02.249Z,7.20
2023-03-29T11:46:42.783Z,7.24
2023-03-29T11:47:47.704Z,7.28
2023-03-29T11:48:57.022Z,7.29
2023-03-29T11:50:19.908Z,7.41
2023-03-29T11:51:31.108Z,7.46
2023-03-29T11:52:36.080Z,7.42
2023-03-29T11:53:47.875Z,7.44
2023-03-29T11:54:53.924Z,7.32
2023-03-29T11:56:02.331Z,7.44
2023-03-29T11:57:13.329Z,7.46
2023-03-29T11:58:26.917Z,7.59
2023-03-29T11:59:36.169Z,7.45
2023-03-29T12:00:45.028Z,7.40
2023-03-29T12:01:54.783Z,7.39
2023-03-29T12:03:21.169Z,7.47
2023-03-29T12:04:42.141Z,7.47
2023-03-29T12:05:49.339Z,7.51
2023-03-29T12:07:10.152Z,7.54
2023-03-29T12:08:29.017Z,7.62
2023-03-29T12:09:51.223Z,7.59
2023-03-29T12:11:37.765Z,7.58
2023-03-29T12:13:07.490Z,7.59
2023-03-29T12:14:19.759Z,7.55
2023-03-29T12:15:29.539Z,7.53
2023-03-29T12:16:52.316Z,7.50
2023-03-29T12:18:07.100Z,7.63
2023-03-29T12:19:40.273Z,7.67
2023-03-29T12:20:49.854Z,7.69
2023-03-29T12:21:54.805Z,7.69
2023-03-29T12:22:57.110Z,7.72
2023-03-29T12:23:59.241Z,7.71
2023-03-29T12:25:04.976Z,7.66
2023-03-29T12:26:19.909Z,7.61
2023-03-29T12:27:31.968Z,7.60
2023-03-29T12:28:55.999Z,7.64
2023-03-29T12:30:25.421Z,7.62
2023-03-29T12:31:42.206Z,7.66
2023-03-29T12:32:53.457Z,7.65
2023-03-29T12:34:26.401Z,7.63
2023-03-29T12:35:28.587Z,7.61
2023-03-29T12:36:36.179Z,7.64
2023-03-29T12:37:45.021Z,7.74
2023-03-29T12:38:48.336Z,7.74
2023-03-29T12:39:51.804Z,7.75
2023-03-29T12:41:02.287Z,7.73
2023-03-29T12:42:13.235Z,7.77
2023-03-29T12:43:31.524Z,7.81
2023-03-29T12:44:34.208Z,7.78
2023-03-29T12:45:48.601Z,7.87
2023-03-29T12:47:01.820Z,7.92
2023-03-29T12:48:04.433Z,7.84
2023-03-29T12:49:25.764Z,7.73
2023-03-29T12:50:34.193Z,7.68
2023-03-29T12:51:37.547Z,7.60
2023-03-29T12:52:43.157Z,7.60
2023-03-29T12:53:54.001Z,7.61
2023-03-29T12:54:58.912Z,7.59
2023-03-29T12:56:01.145Z,7.57
2023-03-29T12:57:38.317Z,7.65
2023-03-29T12:58:40.280Z,7.69
2023-03-29T12:59:48.048Z,7.75
2023-03-29T13:01:05.525Z,7.62
2023-03-29T13:02:18.183Z,7.52
2023-03-29T13:03:27.337Z,7.55
2023-03-29T13:04:56.511Z,7.60
2023-03-29T13:06:03.983Z,7.57
2023-03-29T13:07:07.220Z,7.55
2023-03-29T13:08:26.396Z,7.64
2023-03-29T13:09:32.434Z,7.65
2023-03-29T13:10:42.670Z,7.63
2023-03-29T13:11:52.608Z,7.58
2023-03-29T13:13:15.644Z,7.62
2023-03-29T13:14:20.903Z,7.60
2023-03-29T13:15:25.365Z,7.67
2023-03-29T13:16:35.304Z,7.69
2023-03-29T13:17:58.978Z,7.64
2023-03-29T13:19:22.833Z,7.58
2023-03-29T13:20:52.883Z,7.55
2023-03-29T13:22:43.097Z,7.47
2023-03-29T13:24:20.538Z,7.46
2023-03-29T13:25:43.964Z,7.42
2023-03-29T13:26:52.012Z,7.34
2023-03-29T13:28:00.008Z,7.33
2023-03-29T13:29:20.310Z,7.32
2023-03-29T13:30:25.418Z,7.27
2023-03-29T13:31:53.373Z,7.27
2023-03-29T13:33:16.205Z,7.23
2023-03-29T13:34:59.574Z,7.21
2023-03-29T13:36:22.784Z,7.15
2023-03-29T13:38:06.039Z,7.40
2023-03-29T13:39:19.781Z,7.31
2023-03-29T13:40:54.604Z,7.18
2023-03-29T13:42:33.437Z,7.13
2023-03-29T13:43:37.809Z,7.03
2023-03-29T13:44:45.030Z,7.00
2023-03-29T13:45:58.877Z,6.98
2023-03-29T13:47:25.604Z,6.95
2023-03-29T13:48:30.062Z,6.94
2023-03-29T13:49:34.989Z,6.90
2023-03-29T13:50:40.912Z,6.88
2023-03-29T13:51:59.242Z,6.87
2023-03-29T13:53:10.234Z,6.90
2023-03-29T13:54:31.002Z,6.95
2023-03-29T13:55:41.301Z,7.03
2023-03-29T13:57:00.236Z,6.95
2023-03-29T13:58:13.615Z,6.93
2023-03-29T13:59:34.672Z,6.97
2023-03-29T14:00:54.236Z,6.93
2023-03-29T14:02:00.656Z,6.89
2023-03-29T14:03:13.917Z,6.84
2023-03-29T14:04:26.792Z,6.81
2023-03-29T14:05:39.122Z,6.85
2023-03-29T14:06:45.060Z,6.82
2023-03-29T14:07:51.682Z,6.78
2023-03-29T14:08:54.450Z,6.75
2023-03-29T14:09:58.835Z,6.72
2023-03-29T14:11:03.371Z,6.70
2023-03-29T14:12:07.150Z,6.67
2023-03-29T14:13:16.045Z,6.68
2023-03-29T14:14:24.948Z,6.74
2023-03-29T14:15:42.935Z,6.71
2023-03-29T14:16:45.166Z,6.67
2023-03-29T14:17:48.205Z,6.63
2023-03-29T14:18:52.420Z,6.63
2023-03-29T14:19:58.214Z,6.61
2023-03-29T14:21:01.957Z,6.61
2023-03-29T14:22:10.065Z,6.60
2023-03-29T14:23:17.977Z,6.59
2023-03-29T14:24:27.242Z,6.62
2023-03-29T14:25:29.748Z,6.61
2023-03-29T14:26:34.881Z,6.57
2023-03-29T14:27:37.366Z,6.57
2023-03-29T14:28:49.605Z,6.54
2023-03-29T14:29:52.598Z,6.53
2023-03-29T14:30:56.205Z,6.51
2023-03-29T14:32:09.648Z,6.51
2023-03-29T14:33:25.078Z,6.53
2023-03-29T14:34:28.873Z,6.57
2023-03-29T14:35:33.548Z,6.54
2023-03-29T14:36:36.652Z,6.56
2023-03-29T14:37:39.097Z,6.57
2023-03-29T14:38:41.560Z,6.59
2023-03-29T14:39:43.537Z,6.54
2023-03-29T14:40:45.768Z,6.57
2023-03-29T14:41:51.327Z,6.57
2023-03-29T14:42:54.152Z,6.56
2023-03-29T14:43:58.694Z,6.63
2023-03-29T14:45:07.095Z,6.60
2023-03-29T14:46:10.024Z,6.57
2023-03-29T14:47:34.738Z,6.57
2023-03-29T14:48:37.754Z,6.56
2023-03-29T14:49:40.556Z,6.51
2023-03-29T14:50:44.505Z,6.44
2023-03-29T14:51:47.309Z,6.45
2023-03-29T14:52:52.462Z,6.38
2023-03-29T14:53:56.176Z,6.37
2023-03-29T14:55:02.517Z,6.30
2023-03-29T14:56:07.790Z,6.27
2023-03-29T14:57:16.821Z,6.25